sensor_id;sensor_type;location;lat;lon;timestamp;P1;durP1;ratioP1;P2;durP2;ratioP2
61025;SDS011;46911;32.650;-16.902;2024-01-25T00:00:16;14.27;;;2.28;;
61025;SDS011;46911;32.650;-16.902;2024-01-25T00:02:17;12.40;;;1.73;;
61025;SDS011;46911;32.650;-16.902;2024-01-25T00:04:21;23.02;;;2.17;;
61025;SDS011;46911;32.650;-16.902;2024-01-25T00:06:27;11.50;;;2.28;;
61025;SDS011;46911;32.650;-16.902;2024-01-25T00:08:31;15.55;;;1.77;;
61025;SDS011;46911;32.650;-16.902;2024-01-25T00:10:32;12.68;;;1.63;;
61025;SDS011;46911;32.650;-16.902;2024-01-25T00:12:35;18.10;;;2.13;;
61025;SDS011;46911;32.650;-16.902;2024-01-25T00:14:36;11.95;;;1.35;;
61025;SDS011;46911;32.650;-16.902;2024-01-25T00:16:42;21.52;;;2.90;;
61025;SDS011;46911;32.650;-16.902;2024-01-25T00:18:47;31.23;;;1.83;;
61025;SDS011;46911;32.650;-16.902;2024-01-25T00:20:51;13.18;;;1.58;;
61025;SDS011;46911;32.650;-16.902;2024-01-25T00:22:52;17.98;;;2.40;;
61025;SDS011;46911;32.650;-16.902;2024-01-25T00:24:59;15.05;;;3.53;;
61025;SDS011;46911;32.650;-16.902;2024-01-25T00:27:03;15.70;;;1.95;;
61025;SDS011;46911;32.650;-16.902;2024-01-25T00:29:06;8.10;;;1.40;;
61025;SDS011;46911;32.650;-16.902;2024-01-25T00:31:10;10.55;;;1.40;;
61025;SDS011;46911;32.650;-16.902;2024-01-25T00:33:11;18.98;;;2.17;;
61025;SDS011;46911;32.650;-16.902;2024-01-25T00:35:17;10.65;;;1.58;;
61025;SDS011;46911;32.650;-16.902;2024-01-25T00:37:23;10.50;;;1.60;;
61025;SDS011;46911;32.650;-16.902;2024-01-25T00:39:25;18.55;;;2.25;;
61025;SDS011;46911;32.650;-16.902;2024-01-25T00:41:28;11.77;;;1.70;;
61025;SDS011;46911;32.650;-16.902;2024-01-25T00:43:32;12.48;;;1.63;;
61025;SDS011;46911;32.650;-16.902;2024-01-25T00:45:38;23.65;;;2.08;;
61025;SDS011;46911;32.650;-16.902;2024-01-25T00:47:40;5.70;;;1.30;;
61025;SDS011;46911;32.650;-16.902;2024-01-25T00:49:41;13.05;;;1.88;;
61025;SDS011;46911;32.650;-16.902;2024-01-25T00:51:43;10.73;;;2.42;;
61025;SDS011;46911;32.650;-16.902;2024-01-25T00:53:48;10.65;;;1.63;;
61025;SDS011;46911;32.650;-16.902;2024-01-25T00:55:49;13.55;;;1.63;;
61025;SDS011;46911;32.650;-16.902;2024-01-25T00:57:50;13.73;;;4.07;;
61025;SDS011;46911;32.650;-16.902;2024-01-25T00:59:54;10.82;;;1.40;;
61025;SDS011;46911;32.650;-16.902;2024-01-25T01:02:03;11.80;;;1.70;;
61025;SDS011;46911;32.650;-16.902;2024-01-25T01:04:06;12.25;;;1.40;;
61025;SDS011;46911;32.650;-16.902;2024-01-25T01:06:15;13.00;;;1.58;;
61025;SDS011;46911;32.650;-16.902;2024-01-25T01:08:22;13.20;;;1.80;;
61025;SDS011;46911;32.650;-16.902;2024-01-25T01:10:25;10.70;;;1.50;;
61025;SDS011;46911;32.650;-16.902;2024-01-25T01:12:30;14.30;;;2.60;;
61025;SDS011;46911;32.650;-16.902;2024-01-25T01:14:31;9.50;;;1.35;;
61025;SDS011;46911;32.650;-16.902;2024-01-25T01:16:31;12.30;;;1.65;;
61025;SDS011;46911;32.650;-16.902;2024-01-25T01:18:36;27.85;;;2.10;;
61025;SDS011;46911;32.650;-16.902;2024-01-25T01:20:38;10.18;;;1.33;;
61025;SDS011;46911;32.650;-16.902;2024-01-25T01:22:39;17.63;;;2.15;;
61025;SDS011;46911;32.650;-16.902;2024-01-25T01:24:40;19.38;;;1.90;;
61025;SDS011;46911;32.650;-16.902;2024-01-25T01:26:47;6.43;;;1.10;;
61025;SDS011;46911;32.650;-16.902;2024-01-25T01:28:51;13.38;;;1.52;;
61025;SDS011;46911;32.650;-16.902;2024-01-25T01:30:57;10.68;;;1.00;;
61025;SDS011;46911;32.650;-16.902;2024-01-25T01:33:00;17.95;;;1.83;;
61025;SDS011;46911;32.650;-16.902;2024-01-25T01:35:01;14.02;;;1.70;;
61025;SDS011;46911;32.650;-16.902;2024-01-25T01:37:07;10.45;;;1.30;;
61025;SDS011;46911;32.650;-16.902;2024-01-25T01:39:11;9.23;;;1.10;;
61025;SDS011;46911;32.650;-16.902;2024-01-25T01:41:17;14.98;;;2.38;;
61025;SDS011;46911;32.650;-16.902;2024-01-25T01:43:18;14.90;;;2.03;;
61025;SDS011;46911;32.650;-16.902;2024-01-25T01:45:22;14.38;;;1.83;;
61025;SDS011;46911;32.650;-16.902;2024-01-25T01:47:28;15.52;;;1.80;;
61025;SDS011;46911;32.650;-16.902;2024-01-25T01:49:31;15.52;;;2.25;;
61025;SDS011;46911;32.650;-16.902;2024-01-25T01:51:38;16.17;;;1.60;;
61025;SDS011;46911;32.650;-16.902;2024-01-25T01:53:41;10.93;;;1.90;;
61025;SDS011;46911;32.650;-16.902;2024-01-25T01:55:42;13.85;;;1.98;;
61025;SDS011;46911;32.650;-16.902;2024-01-25T01:57:48;16.92;;;2.20;;
61025;SDS011;46911;32.650;-16.902;2024-01-25T01:59:54;14.15;;;1.80;;
61025;SDS011;46911;32.650;-16.902;2024-01-25T02:01:55;17.63;;;1.77;;
61025;SDS011;46911;32.650;-16.902;2024-01-25T02:03:56;17.50;;;1.73;;
61025;SDS011;46911;32.650;-16.902;2024-01-25T02:05:57;19.92;;;2.25;;
61025;SDS011;46911;32.650;-16.902;2024-01-25T02:08:05;27.65;;;3.47;;
61025;SDS011;46911;32.650;-16.902;2024-01-25T02:10:07;14.77;;;2.33;;
61025;SDS011;46911;32.650;-16.902;2024-01-25T02:12:09;23.35;;;2.10;;
61025;SDS011;46911;32.650;-16.902;2024-01-25T02:14:12;23.17;;;2.05;;
61025;SDS011;46911;32.650;-16.902;2024-01-25T02:16:15;18.13;;;2.13;;
61025;SDS011;46911;32.650;-16.902;2024-01-25T02:18:20;15.75;;;2.35;;
61025;SDS011;46911;32.650;-16.902;2024-01-25T02:20:24;16.92;;;2.00;;
61025;SDS011;46911;32.650;-16.902;2024-01-25T02:22:27;27.58;;;1.83;;
61025;SDS011;46911;32.650;-16.902;2024-01-25T02:24:28;9.80;;;3.08;;
61025;SDS011;46911;32.650;-16.902;2024-01-25T02:26:29;20.45;;;2.03;;
61025;SDS011;46911;32.650;-16.902;2024-01-25T02:28:33;6.45;;;1.50;;
61025;SDS011;46911;32.650;-16.902;2024-01-25T02:30:35;13.98;;;1.75;;
61025;SDS011;46911;32.650;-16.902;2024-01-25T02:32:36;15.88;;;2.05;;
61025;SDS011;46911;32.650;-16.902;2024-01-25T02:34:39;15.05;;;1.75;;
61025;SDS011;46911;32.650;-16.902;2024-01-25T02:36:43;26.45;;;2.50;;
61025;SDS011;46911;32.650;-16.902;2024-01-25T02:38:46;26.00;;;2.20;;
61025;SDS011;46911;32.650;-16.902;2024-01-25T02:40:49;24.88;;;1.95;;
61025;SDS011;46911;32.650;-16.902;2024-01-25T02:42:52;17.40;;;2.10;;
61025;SDS011;46911;32.650;-16.902;2024-01-25T02:44:53;27.50;;;2.55;;
61025;SDS011;46911;32.650;-16.902;2024-01-25T02:46:56;23.65;;;2.28;;
61025;SDS011;46911;32.650;-16.902;2024-01-25T02:48:59;26.35;;;2.55;;
61025;SDS011;46911;32.650;-16.902;2024-01-25T02:51:03;20.15;;;2.10;;
61025;SDS011;46911;32.650;-16.902;2024-01-25T02:53:07;10.85;;;1.98;;
61025;SDS011;46911;32.650;-16.902;2024-01-25T02:55:08;14.07;;;1.75;;
61025;SDS011;46911;32.650;-16.902;2024-01-25T02:57:14;14.55;;;1.83;;
61025;SDS011;46911;32.650;-16.902;2024-01-25T02:59:19;19.33;;;2.20;;
61025;SDS011;46911;32.650;-16.902;2024-01-25T03:01:20;28.60;;;2.60;;
61025;SDS011;46911;32.650;-16.902;2024-01-25T03:03:24;17.23;;;2.22;;
61025;SDS011;46911;32.650;-16.902;2024-01-25T03:05:25;15.98;;;2.03;;
61025;SDS011;46911;32.650;-16.902;2024-01-25T03:07:26;38.83;;;2.30;;
61025;SDS011;46911;32.650;-16.902;2024-01-25T03:09:29;10.48;;;1.55;;
61025;SDS011;46911;32.650;-16.902;2024-01-25T03:11:30;25.45;;;2.55;;
61025;SDS011;46911;32.650;-16.902;2024-01-25T03:13:31;19.90;;;2.20;;
61025;SDS011;46911;32.650;-16.902;2024-01-25T03:15:35;14.25;;;1.83;;
61025;SDS011;46911;32.650;-16.902;2024-01-25T03:17:35;13.05;;;3.92;;
61025;SDS011;46911;32.650;-16.902;2024-01-25T03:19:39;30.05;;;2.95;;
61025;SDS011;46911;32.650;-16.902;2024-01-25T03:21:40;25.33;;;2.40;;
61025;SDS011;46911;32.650;-16.902;2024-01-25T03:23:40;16.85;;;1.40;;
61025;SDS011;46911;32.650;-16.902;2024-01-25T03:25:41;16.02;;;2.05;;
61025;SDS011;46911;32.650;-16.902;2024-01-25T03:27:47;20.92;;;2.45;;
61025;SDS011;46911;32.650;-16.902;2024-01-25T03:29:48;17.55;;;2.47;;
61025;SDS011;46911;32.650;-16.902;2024-01-25T03:31:49;13.88;;;1.95;;
61025;SDS011;46911;32.650;-16.902;2024-01-25T03:33:54;14.02;;;2.22;;
61025;SDS011;46911;32.650;-16.902;2024-01-25T03:36:02;19.27;;;2.42;;
61025;SDS011;46911;32.650;-16.902;2024-01-25T03:38:10;20.77;;;2.17;;
61025;SDS011;46911;32.650;-16.902;2024-01-25T03:40:14;25.83;;;3.15;;
61025;SDS011;46911;32.650;-16.902;2024-01-25T03:42:20;19.08;;;2.25;;
61025;SDS011;46911;32.650;-16.902;2024-01-25T03:44:21;18.13;;;2.22;;
61025;SDS011;46911;32.650;-16.902;2024-01-25T03:46:22;16.95;;;2.50;;
61025;SDS011;46911;32.650;-16.902;2024-01-25T03:48:23;13.50;;;1.73;;
61025;SDS011;46911;32.650;-16.902;2024-01-25T03:50:23;22.85;;;2.42;;
61025;SDS011;46911;32.650;-16.902;2024-01-25T03:52:24;19.52;;;2.90;;
61025;SDS011;46911;32.650;-16.902;2024-01-25T03:54:28;23.15;;;2.92;;
61025;SDS011;46911;32.650;-16.902;2024-01-25T03:56:31;27.38;;;2.83;;
61025;SDS011;46911;32.650;-16.902;2024-01-25T03:58:35;21.30;;;2.42;;
61025;SDS011;46911;32.650;-16.902;2024-01-25T04:00:38;26.52;;;3.13;;
61025;SDS011;46911;32.650;-16.902;2024-01-25T04:02:42;24.40;;;2.35;;
61025;SDS011;46911;32.650;-16.902;2024-01-25T04:04:48;24.50;;;2.83;;
61025;SDS011;46911;32.650;-16.902;2024-01-25T04:06:52;23.77;;;2.45;;
61025;SDS011;46911;32.650;-16.902;2024-01-25T04:08:53;27.00;;;2.65;;
61025;SDS011;46911;32.650;-16.902;2024-01-25T04:11:01;34.00;;;4.65;;
61025;SDS011;46911;32.650;-16.902;2024-01-25T04:13:04;35.33;;;3.25;;
61025;SDS011;46911;32.650;-16.902;2024-01-25T04:15:09;16.00;;;2.00;;
61025;SDS011;46911;32.650;-16.902;2024-01-25T04:17:11;23.98;;;2.78;;
61025;SDS011;46911;32.650;-16.902;2024-01-25T04:19:12;23.38;;;2.35;;
61025;SDS011;46911;32.650;-16.902;2024-01-25T04:21:15;20.83;;;2.70;;
61025;SDS011;46911;32.650;-16.902;2024-01-25T04:23:18;19.80;;;2.92;;
61025;SDS011;46911;32.650;-16.902;2024-01-25T04:25:21;25.05;;;3.00;;
61025;SDS011;46911;32.650;-16.902;2024-01-25T04:27:24;23.00;;;2.45;;
61025;SDS011;46911;32.650;-16.902;2024-01-25T04:29:28;32.58;;;2.83;;
61025;SDS011;46911;32.650;-16.902;2024-01-25T04:31:31;45.97;;;3.05;;
61025;SDS011;46911;32.650;-16.902;2024-01-25T04:33:37;30.23;;;2.75;;
61025;SDS011;46911;32.650;-16.902;2024-01-25T04:35:41;33.22;;;3.40;;
61025;SDS011;46911;32.650;-16.902;2024-01-25T04:37:46;40.33;;;3.50;;
61025;SDS011;46911;32.650;-16.902;2024-01-25T04:39:46;24.13;;;3.28;;
61025;SDS011;46911;32.650;-16.902;2024-01-25T04:41:50;20.73;;;3.22;;
61025;SDS011;46911;32.650;-16.902;2024-01-25T04:43:53;23.63;;;2.53;;
61025;SDS011;46911;32.650;-16.902;2024-01-25T04:45:57;31.70;;;3.25;;
61025;SDS011;46911;32.650;-16.902;2024-01-25T04:48:00;25.80;;;3.53;;
61025;SDS011;46911;32.650;-16.902;2024-01-25T04:50:01;27.50;;;2.95;;
61025;SDS011;46911;32.650;-16.902;2024-01-25T04:52:02;33.45;;;3.10;;
61025;SDS011;46911;32.650;-16.902;2024-01-25T04:54:05;21.38;;;2.53;;
61025;SDS011;46911;32.650;-16.902;2024-01-25T04:56:13;26.23;;;2.72;;
61025;SDS011;46911;32.650;-16.902;2024-01-25T04:58:16;25.13;;;2.55;;
61025;SDS011;46911;32.650;-16.902;2024-01-25T05:00:21;32.20;;;3.58;;
61025;SDS011;46911;32.650;-16.902;2024-01-25T05:02:22;33.13;;;2.90;;
61025;SDS011;46911;32.650;-16.902;2024-01-25T05:04:26;20.17;;;3.00;;
61025;SDS011;46911;32.650;-16.902;2024-01-25T05:06:29;34.65;;;3.53;;
61025;SDS011;46911;32.650;-16.902;2024-01-25T05:08:30;30.00;;;3.50;;
61025;SDS011;46911;32.650;-16.902;2024-01-25T05:10:33;37.17;;;3.22;;
61025;SDS011;46911;32.650;-16.902;2024-01-25T05:12:34;15.02;;;2.88;;
61025;SDS011;46911;32.650;-16.902;2024-01-25T05:14:37;22.20;;;3.05;;
61025;SDS011;46911;32.650;-16.902;2024-01-25T05:16:45;27.85;;;2.58;;
61025;SDS011;46911;32.650;-16.902;2024-01-25T05:18:46;31.10;;;3.13;;
61025;SDS011;46911;32.650;-16.902;2024-01-25T05:20:47;20.23;;;3.10;;
61025;SDS011;46911;32.650;-16.902;2024-01-25T05:22:48;36.75;;;3.97;;
61025;SDS011;46911;32.650;-16.902;2024-01-25T05:24:51;29.98;;;3.60;;
61025;SDS011;46911;32.650;-16.902;2024-01-25T05:26:52;33.00;;;3.55;;
61025;SDS011;46911;32.650;-16.902;2024-01-25T05:28:55;30.50;;;4.25;;
61025;SDS011;46911;32.650;-16.902;2024-01-25T05:30:56;30.58;;;4.25;;
61025;SDS011;46911;32.650;-16.902;2024-01-25T05:32:57;31.08;;;3.58;;
61025;SDS011;46911;32.650;-16.902;2024-01-25T05:35:00;38.70;;;4.25;;
61025;SDS011;46911;32.650;-16.902;2024-01-25T05:37:03;32.45;;;3.88;;
61025;SDS011;46911;32.650;-16.902;2024-01-25T05:39:09;33.72;;;4.25;;
61025;SDS011;46911;32.650;-16.902;2024-01-25T05:41:10;35.58;;;3.88;;
61025;SDS011;46911;32.650;-16.902;2024-01-25T05:43:10;22.60;;;2.50;;
61025;SDS011;46911;32.650;-16.902;2024-01-25T05:45:13;34.80;;;3.97;;
61025;SDS011;46911;32.650;-16.902;2024-01-25T05:47:22;36.75;;;3.65;;
61025;SDS011;46911;32.650;-16.902;2024-01-25T05:49:25;41.88;;;4.07;;
61025;SDS011;46911;32.650;-16.902;2024-01-25T05:51:31;31.38;;;4.63;;
61025;SDS011;46911;32.650;-16.902;2024-01-25T05:53:34;27.05;;;3.40;;
61025;SDS011;46911;32.650;-16.902;2024-01-25T05:55:40;29.38;;;3.47;;
61025;SDS011;46911;32.650;-16.902;2024-01-25T05:57:46;30.60;;;3.15;;
61025;SDS011;46911;32.650;-16.902;2024-01-25T05:59:47;26.52;;;3.97;;
61025;SDS011;46911;32.650;-16.902;2024-01-25T06:01:50;38.03;;;3.40;;
61025;SDS011;46911;32.650;-16.902;2024-01-25T06:03:51;32.45;;;3.55;;
61025;SDS011;46911;32.650;-16.902;2024-01-25T06:05:52;30.40;;;2.80;;
61025;SDS011;46911;32.650;-16.902;2024-01-25T06:07:58;29.80;;;3.78;;
61025;SDS011;46911;32.650;-16.902;2024-01-25T06:09:59;42.38;;;3.63;;
61025;SDS011;46911;32.650;-16.902;2024-01-25T06:12:00;29.83;;;2.90;;
61025;SDS011;46911;32.650;-16.902;2024-01-25T06:14:04;26.83;;;3.40;;
61025;SDS011;46911;32.650;-16.902;2024-01-25T06:16:08;26.15;;;3.08;;
61025;SDS011;46911;32.650;-16.902;2024-01-25T06:18:09;25.10;;;3.33;;
61025;SDS011;46911;32.650;-16.902;2024-01-25T06:20:13;35.50;;;3.13;;
61025;SDS011;46911;32.650;-16.902;2024-01-25T06:22:14;32.22;;;3.28;;
61025;SDS011;46911;32.650;-16.902;2024-01-25T06:24:17;27.20;;;3.20;;
61025;SDS011;46911;32.650;-16.902;2024-01-25T06:26:21;30.20;;;3.58;;
61025;SDS011;46911;32.650;-16.902;2024-01-25T06:28:21;22.58;;;3.50;;
61025;SDS011;46911;32.650;-16.902;2024-01-25T06:30:22;21.40;;;3.60;;
61025;SDS011;46911;32.650;-16.902;2024-01-25T06:32:23;17.13;;;3.13;;
61025;SDS011;46911;32.650;-16.902;2024-01-25T06:34:30;29.30;;;3.08;;
61025;SDS011;46911;32.650;-16.902;2024-01-25T06:36:36;22.40;;;3.47;;
61025;SDS011;46911;32.650;-16.902;2024-01-25T06:38:37;29.33;;;3.30;;
61025;SDS011;46911;32.650;-16.902;2024-01-25T06:40:38;23.00;;;2.90;;
61025;SDS011;46911;32.650;-16.902;2024-01-25T06:42:42;35.97;;;3.35;;
61025;SDS011;46911;32.650;-16.902;2024-01-25T06:44:46;34.53;;;2.92;;
61025;SDS011;46911;32.650;-16.902;2024-01-25T06:46:47;26.73;;;3.53;;
61025;SDS011;46911;32.650;-16.902;2024-01-25T06:48:50;22.35;;;2.83;;
61025;SDS011;46911;32.650;-16.902;2024-01-25T06:50:52;21.55;;;4.47;;
61025;SDS011;46911;32.650;-16.902;2024-01-25T06:52:52;12.10;;;2.35;;
61025;SDS011;46911;32.650;-16.902;2024-01-25T06:55:01;30.15;;;3.13;;
61025;SDS011;46911;32.650;-16.902;2024-01-25T06:57:04;22.55;;;3.08;;
61025;SDS011;46911;32.650;-16.902;2024-01-25T06:59:10;21.23;;;3.17;;
61025;SDS011;46911;32.650;-16.902;2024-01-25T07:01:11;23.83;;;3.08;;
61025;SDS011;46911;32.650;-16.902;2024-01-25T07:03:15;37.08;;;3.58;;
61025;SDS011;46911;32.650;-16.902;2024-01-25T07:05:18;22.20;;;3.28;;
61025;SDS011;46911;32.650;-16.902;2024-01-25T07:07:22;17.10;;;3.50;;
61025;SDS011;46911;32.650;-16.902;2024-01-25T07:09:23;24.23;;;3.28;;
61025;SDS011;46911;32.650;-16.902;2024-01-25T07:11:26;16.90;;;3.00;;
61025;SDS011;46911;32.650;-16.902;2024-01-25T07:13:27;26.20;;;3.75;;
61025;SDS011;46911;32.650;-16.902;2024-01-25T07:15:28;23.88;;;3.88;;
61025;SDS011;46911;32.650;-16.902;2024-01-25T07:17:28;41.35;;;3.90;;
61025;SDS011;46911;32.650;-16.902;2024-01-25T07:19:30;25.35;;;2.97;;
61025;SDS011;46911;32.650;-16.902;2024-01-25T07:21:33;15.68;;;2.88;;
61025;SDS011;46911;32.650;-16.902;2024-01-25T07:23:34;24.02;;;3.83;;
61025;SDS011;46911;32.650;-16.902;2024-01-25T07:25:39;18.25;;;2.70;;
61025;SDS011;46911;32.650;-16.902;2024-01-25T07:27:43;25.65;;;2.80;;
61025;SDS011;46911;32.650;-16.902;2024-01-25T07:29:45;18.33;;;2.53;;
61025;SDS011;46911;32.650;-16.902;2024-01-25T07:31:46;24.10;;;2.20;;
61025;SDS011;46911;32.650;-16.902;2024-01-25T07:33:50;20.02;;;2.20;;
61025;SDS011;46911;32.650;-16.902;2024-01-25T07:35:53;18.65;;;2.60;;
61025;SDS011;46911;32.650;-16.902;2024-01-25T07:37:54;17.88;;;2.92;;
61025;SDS011;46911;32.650;-16.902;2024-01-25T07:39:57;23.05;;;3.15;;
61025;SDS011;46911;32.650;-16.902;2024-01-25T07:42:01;13.25;;;2.67;;
61025;SDS011;46911;32.650;-16.902;2024-01-25T07:44:02;23.75;;;2.40;;
61025;SDS011;46911;32.650;-16.902;2024-01-25T07:46:06;17.17;;;3.13;;
61025;SDS011;46911;32.650;-16.902;2024-01-25T07:48:15;22.38;;;3.67;;
61025;SDS011;46911;32.650;-16.902;2024-01-25T07:50:18;17.88;;;4.20;;
61025;SDS011;46911;32.650;-16.902;2024-01-25T07:52:19;20.70;;;4.10;;
61025;SDS011;46911;32.650;-16.902;2024-01-25T07:54:23;15.98;;;3.03;;
61025;SDS011;46911;32.650;-16.902;2024-01-25T07:56:27;14.13;;;3.03;;
61025;SDS011;46911;32.650;-16.902;2024-01-25T07:58:32;13.10;;;2.83;;
61025;SDS011;46911;32.650;-16.902;2024-01-25T08:00:33;13.85;;;3.30;;
61025;SDS011;46911;32.650;-16.902;2024-01-25T08:02:34;18.25;;;3.40;;
61025;SDS011;46911;32.650;-16.902;2024-01-25T08:04:46;22.08;;;3.42;;
61025;SDS011;46911;32.650;-16.902;2024-01-25T08:06:47;26.83;;;3.17;;
61025;SDS011;46911;32.650;-16.902;2024-01-25T08:08:48;20.85;;;3.33;;
61025;SDS011;46911;32.650;-16.902;2024-01-25T08:10:51;17.25;;;3.42;;
61025;SDS011;46911;32.650;-16.902;2024-01-25T08:12:55;11.35;;;2.45;;
61025;SDS011;46911;32.650;-16.902;2024-01-25T08:14:57;25.23;;;2.80;;
61025;SDS011;46911;32.650;-16.902;2024-01-25T08:16:58;14.82;;;4.30;;
61025;SDS011;46911;32.650;-16.902;2024-01-25T08:19:02;18.52;;;4.20;;
61025;SDS011;46911;32.650;-16.902;2024-01-25T08:21:08;23.10;;;4.38;;
61025;SDS011;46911;32.650;-16.902;2024-01-25T08:23:11;21.27;;;3.58;;
61025;SDS011;46911;32.650;-16.902;2024-01-25T08:25:14;28.15;;;3.90;;
61025;SDS011;46911;32.650;-16.902;2024-01-25T08:27:17;17.02;;;3.60;;
61025;SDS011;46911;32.650;-16.902;2024-01-25T08:29:20;21.75;;;3.13;;
61025;SDS011;46911;32.650;-16.902;2024-01-25T08:31:21;26.30;;;3.22;;
61025;SDS011;46911;32.650;-16.902;2024-01-25T08:33:22;15.77;;;2.75;;
61025;SDS011;46911;32.650;-16.902;2024-01-25T08:35:25;21.65;;;3.58;;
61025;SDS011;46911;32.650;-16.902;2024-01-25T08:37:26;20.10;;;3.55;;
61025;SDS011;46911;32.650;-16.902;2024-01-25T08:39:32;19.55;;;3.10;;
61025;SDS011;46911;32.650;-16.902;2024-01-25T08:41:33;35.55;;;5.47;;
61025;SDS011;46911;32.650;-16.902;2024-01-25T08:43:34;24.98;;;3.33;;
61025;SDS011;46911;32.650;-16.902;2024-01-25T08:45:35;36.03;;;3.95;;
61025;SDS011;46911;32.650;-16.902;2024-01-25T08:47:41;25.17;;;4.32;;
61025;SDS011;46911;32.650;-16.902;2024-01-25T08:49:44;42.65;;;4.70;;
61025;SDS011;46911;32.650;-16.902;2024-01-25T08:51:51;39.17;;;4.90;;
61025;SDS011;46911;32.650;-16.902;2024-01-25T08:53:55;33.67;;;4.65;;
61025;SDS011;46911;32.650;-16.902;2024-01-25T08:56:00;48.40;;;5.32;;
61025;SDS011;46911;32.650;-16.902;2024-01-25T08:58:01;31.48;;;4.82;;
61025;SDS011;46911;32.650;-16.902;2024-01-25T09:00:05;20.23;;;4.35;;
61025;SDS011;46911;32.650;-16.902;2024-01-25T09:02:10;24.05;;;4.47;;
61025;SDS011;46911;32.650;-16.902;2024-01-25T09:04:14;34.28;;;4.80;;
61025;SDS011;46911;32.650;-16.902;2024-01-25T09:06:21;59.55;;;6.18;;
61025;SDS011;46911;32.650;-16.902;2024-01-25T09:08:22;64.10;;;7.22;;
61025;SDS011;46911;32.650;-16.902;2024-01-25T09:10:25;53.80;;;5.53;;
61025;SDS011;46911;32.650;-16.902;2024-01-25T09:12:28;48.85;;;5.13;;
61025;SDS011;46911;32.650;-16.902;2024-01-25T09:14:31;37.97;;;4.43;;
61025;SDS011;46911;32.650;-16.902;2024-01-25T09:16:34;39.97;;;5.72;;
61025;SDS011;46911;32.650;-16.902;2024-01-25T09:18:37;51.28;;;4.70;;
61025;SDS011;46911;32.650;-16.902;2024-01-25T09:20:44;93.32;;;7.30;;
61025;SDS011;46911;32.650;-16.902;2024-01-25T09:22:48;169.60;;;13.40;;
61025;SDS011;46911;32.650;-16.902;2024-01-25T09:24:54;134.90;;;9.18;;
61025;SDS011;46911;32.650;-16.902;2024-01-25T09:26:58;97.28;;;7.25;;
61025;SDS011;46911;32.650;-16.902;2024-01-25T09:29:06;79.57;;;7.65;;
61025;SDS011;46911;32.650;-16.902;2024-01-25T09:31:07;70.88;;;6.55;;
61025;SDS011;46911;32.650;-16.902;2024-01-25T09:33:11;55.35;;;5.60;;
61025;SDS011;46911;32.650;-16.902;2024-01-25T09:35:12;46.25;;;6.53;;
61025;SDS011;46911;32.650;-16.902;2024-01-25T09:37:13;55.47;;;4.93;;
61025;SDS011;46911;32.650;-16.902;2024-01-25T09:39:15;40.90;;;5.13;;
61025;SDS011;46911;32.650;-16.902;2024-01-25T09:41:16;37.13;;;4.28;;
61025;SDS011;46911;32.650;-16.902;2024-01-25T09:43:17;30.13;;;4.15;;
61025;SDS011;46911;32.650;-16.902;2024-01-25T09:45:20;36.47;;;5.07;;
61025;SDS011;46911;32.650;-16.902;2024-01-25T09:47:24;47.25;;;4.88;;
61025;SDS011;46911;32.650;-16.902;2024-01-25T09:49:28;52.67;;;5.75;;
61025;SDS011;46911;32.650;-16.902;2024-01-25T09:51:30;38.65;;;4.65;;
61025;SDS011;46911;32.650;-16.902;2024-01-25T09:53:42;48.38;;;6.82;;
61025;SDS011;46911;32.650;-16.902;2024-01-25T09:55:43;27.55;;;4.95;;
61025;SDS011;46911;32.650;-16.902;2024-01-25T09:57:47;25.00;;;4.68;;
61025;SDS011;46911;32.650;-16.902;2024-01-25T09:59:51;32.13;;;4.28;;
61025;SDS011;46911;32.650;-16.902;2024-01-25T10:01:54;25.92;;;4.07;;
61025;SDS011;46911;32.650;-16.902;2024-01-25T10:03:55;38.00;;;3.88;;
61025;SDS011;46911;32.650;-16.902;2024-01-25T10:05:57;18.77;;;3.92;;
61025;SDS011;46911;32.650;-16.902;2024-01-25T10:08:03;41.67;;;4.90;;
61025;SDS011;46911;32.650;-16.902;2024-01-25T10:10:04;39.92;;;4.70;;
61025;SDS011;46911;32.650;-16.902;2024-01-25T10:12:06;40.40;;;5.15;;
61025;SDS011;46911;32.650;-16.902;2024-01-25T10:14:07;23.70;;;3.25;;
61025;SDS011;46911;32.650;-16.902;2024-01-25T10:16:12;28.42;;;4.10;;
61025;SDS011;46911;32.650;-16.902;2024-01-25T10:18:18;17.95;;;3.92;;
61025;SDS011;46911;32.650;-16.902;2024-01-25T10:20:22;20.45;;;3.67;;
61025;SDS011;46911;32.650;-16.902;2024-01-25T10:22:28;50.83;;;5.53;;
61025;SDS011;46911;32.650;-16.902;2024-01-25T10:24:29;21.88;;;4.90;;
61025;SDS011;46911;32.650;-16.902;2024-01-25T10:26:29;30.40;;;4.28;;
61025;SDS011;46911;32.650;-16.902;2024-01-25T10:28:37;31.38;;;4.32;;
61025;SDS011;46911;32.650;-16.902;2024-01-25T10:30:41;17.25;;;3.78;;
61025;SDS011;46911;32.650;-16.902;2024-01-25T10:32:42;27.77;;;4.13;;
61025;SDS011;46911;32.650;-16.902;2024-01-25T10:34:49;19.02;;;4.05;;
61025;SDS011;46911;32.650;-16.902;2024-01-25T10:36:54;37.25;;;4.28;;
61025;SDS011;46911;32.650;-16.902;2024-01-25T10:38:58;30.52;;;3.83;;
61025;SDS011;46911;32.650;-16.902;2024-01-25T10:41:05;32.22;;;3.72;;
61025;SDS011;46911;32.650;-16.902;2024-01-25T10:43:08;32.10;;;3.28;;
61025;SDS011;46911;32.650;-16.902;2024-01-25T10:45:10;27.05;;;3.10;;
61025;SDS011;46911;32.650;-16.902;2024-01-25T10:47:16;25.48;;;3.20;;
61025;SDS011;46911;32.650;-16.902;2024-01-25T10:49:17;22.08;;;3.80;;
61025;SDS011;46911;32.650;-16.902;2024-01-25T10:51:18;14.85;;;2.65;;
61025;SDS011;46911;32.650;-16.902;2024-01-25T10:53:23;27.50;;;3.70;;
61025;SDS011;46911;32.650;-16.902;2024-01-25T10:55:32;19.63;;;3.38;;
61025;SDS011;46911;32.650;-16.902;2024-01-25T10:59:40;20.23;;;3.47;;
61025;SDS011;46911;32.650;-16.902;2024-01-25T11:01:44;17.95;;;3.60;;
61025;SDS011;46911;32.650;-16.902;2024-01-25T11:03:46;31.45;;;4.25;;
61025;SDS011;46911;32.650;-16.902;2024-01-25T11:05:52;33.33;;;5.45;;
61025;SDS011;46911;32.650;-16.902;2024-01-25T11:07:59;26.40;;;4.50;;
61025;SDS011;46911;32.650;-16.902;2024-01-25T11:10:00;24.30;;;3.78;;
61025;SDS011;46911;32.650;-16.902;2024-01-25T11:12:09;32.03;;;5.35;;
61025;SDS011;46911;32.650;-16.902;2024-01-25T11:14:13;31.00;;;4.25;;
61025;SDS011;46911;32.650;-16.902;2024-01-25T11:18:24;30.52;;;4.22;;
61025;SDS011;46911;32.650;-16.902;2024-01-25T11:20:28;31.90;;;3.60;;
61025;SDS011;46911;32.650;-16.902;2024-01-25T11:22:36;31.55;;;4.43;;
61025;SDS011;46911;32.650;-16.902;2024-01-25T11:24:37;27.33;;;4.40;;
61025;SDS011;46911;32.650;-16.902;2024-01-25T11:26:43;34.38;;;4.15;;
61025;SDS011;46911;32.650;-16.902;2024-01-25T11:28:47;24.92;;;3.97;;
61025;SDS011;46911;32.650;-16.902;2024-01-25T11:30:48;27.88;;;4.10;;
61025;SDS011;46911;32.650;-16.902;2024-01-25T11:32:49;29.85;;;3.58;;
61025;SDS011;46911;32.650;-16.902;2024-01-25T11:34:57;40.60;;;5.47;;
61025;SDS011;46911;32.650;-16.902;2024-01-25T11:37:02;37.00;;;4.40;;
61025;SDS011;46911;32.650;-16.902;2024-01-25T11:39:05;28.63;;;3.63;;
61025;SDS011;46911;32.650;-16.902;2024-01-25T11:41:14;35.72;;;4.25;;
61025;SDS011;46911;32.650;-16.902;2024-01-25T11:43:20;39.65;;;4.68;;
61025;SDS011;46911;32.650;-16.902;2024-01-25T11:45:21;40.78;;;5.38;;
61025;SDS011;46911;32.650;-16.902;2024-01-25T11:47:25;30.40;;;4.60;;
61025;SDS011;46911;32.650;-16.902;2024-01-25T11:49:26;58.45;;;5.53;;
61025;SDS011;46911;32.650;-16.902;2024-01-25T11:51:27;39.28;;;4.50;;
61025;SDS011;46911;32.650;-16.902;2024-01-25T11:53:30;32.10;;;4.00;;